Time;durP1;ratioP1;P1;durP2;ratioP2;P2;SDS_P1;SDS_P2;PMS_P1;PMS_P2;Temp;Humidity;BMP_temperature;BMP_pressure;BME280_temperature;BME280_humidity;BME280_pressure;Samples;Min_cycle;Max_cycle;Signal;HPM_P1;HPM_P2
2023/10/05 00:01:13;;;;;;;24.98;10.63;;;;;;;13.58;68.72;100808.72;5056934;28;20548;-83
2023/10/05 00:03:44;;;;;;;24.42;11.05;;;;;;;13.90;67.81;100811.31;5053135;28;20567;-84
2023/10/05 00:06:25;;;;;;;33.60;11.25;;;;;;;14.24;67.49;100814.44;5056914;28;20032;-84
2023/10/05 00:08:55;;;;;;;22.00;10.73;;;;;;;14.38;64.78;100797.13;5053686;28;20064;-83
2023/10/05 00:11:29;;;;;;;19.27;9.93;;;;;;;14.51;64.16;100820.31;5050088;28;20087;-84
2023/10/05 00:13:59;;;;;;;24.15;10.25;;;;;;;14.49;63.25;100802.81;5053473;28;20059;-83
2023/10/05 00:16:36;;;;;;;22.80;9.65;;;;;;;14.45;62.50;100795.19;5049517;28;20102;-83
2023/10/05 00:19:11;;;;;;;17.90;8.90;;;;;;;14.39;62.32;100809.50;5062591;28;20033;-83
2023/10/05 00:21:51;;;;;;;22.52;9.68;;;;;;;14.19;62.43;100799.03;5053778;28;20051;-84
2023/10/05 00:24:40;;;;;;;18.25;8.82;;;;;;;14.27;62.10;100800.59;5059161;28;20027;-84
2023/10/05 00:27:08;;;;;;;19.27;9.27;;;;;;;14.26;63.58;100809.66;5051037;28;20059;-83
2023/10/05 00:29:41;;;;;;;18.27;8.57;;;;;;;14.31;63.45;100788.34;5065885;28;20040;-83
2023/10/05 00:32:22;;;;;;;18.38;8.57;;;;;;;14.39;62.38;100804.16;5053424;28;20029;-84
2023/10/05 00:34:53;;;;;;;18.17;9.05;;;;;;;14.17;64.34;100808.34;5048253;28;20032;-84
2023/10/05 00:37:21;;;;;;;18.95;9.38;;;;;;;14.21;64.24;100822.94;5029737;28;20091;-84
2023/10/05 00:39:49;;;;;;;19.55;9.20;;;;;;;14.07;64.32;100819.59;5051275;28;20032;-83
2023/10/05 00:42:15;;;;;;;17.75;8.82;;;;;;;13.84;64.86;100801.50;5053404;28;20064;-84
2023/10/05 00:44:42;;;;;;;18.40;8.80;;;;;;;13.98;65.96;100819.06;5058013;28;20025;-84
2023/10/05 00:47:10;;;;;;;17.38;8.95;;;;;;;13.46;66.15;100831.94;5051294;28;20053;-83
2023/10/05 00:49:52;;;;;;;16.13;8.98;;;;;;;12.80;67.60;100803.75;5059915;28;20039;-83
2023/10/05 00:52:24;;;;;;;22.15;10.07;;;;;;;12.58;67.87;100819.31;5052695;28;20113;-84
2023/10/05 00:54:52;;;;;;;21.95;11.48;;;;;;;12.48;68.21;100826.97;5056657;28;20025;-84
2023/10/05 00:57:28;;;;;;;21.63;10.80;;;;;;;12.71;67.72;100829.97;5051202;28;20028;-84
2023/10/05 01:00:16;;;;;;;24.38;11.20;;;;;;;12.91;67.10;100829.00;5048721;28;20045;-83
2023/10/05 01:03:00;;;;;;;26.85;10.98;;;;;;;12.08;68.89;100805.75;5065906;28;20051;-83
2023/10/05 01:05:34;;;;;;;25.88;10.82;;;;;;;11.78;68.99;100803.50;5041467;28;20029;-84
2023/10/05 01:08:04;;;;;;;21.95;10.75;;;;;;;11.63;70.03;100817.09;5068918;28;20463;-83
2023/10/05 01:10:43;;;;;;;24.73;11.38;;;;;;;12.39;66.75;100821.06;5050169;28;20033;-82
2023/10/05 01:13:32;;;;;;;22.90;10.60;;;;;;;12.62;66.83;100829.38;5065207;28;20082;-84
2023/10/05 01:15:58;;;;;;;23.60;11.40;;;;;;;12.94;65.15;100820.56;5058350;28;20029;-83
2023/10/05 01:18:25;;;;;;;23.75;10.68;;;;;;;12.98;66.58;100808.38;5050946;28;20379;-84
2023/10/05 01:20:51;;;;;;;23.08;11.05;;;;;;;12.48;69.27;100818.94;5050391;28;20029;-84
2023/10/05 01:23:18;;;;;;;20.23;10.50;;;;;;;12.82;67.94;100810.53;5063000;28;20056;-83
2023/10/05 01:25:43;;;;;;;22.63;10.27;;;;;;;12.85;68.87;100814.63;5058066;28;20043;-84
2023/10/05 01:28:09;;;;;;;23.80;10.77;;;;;;;12.15;71.28;100803.84;5050464;28;20029;-84
2023/10/05 01:30:38;;;;;;;22.80;10.70;;;;;;;12.46;69.89;100801.28;5063032;28;20033;-83
2023/10/05 01:33:04;;;;;;;31.20;12.85;;;;;;;12.49;69.78;100805.38;5054309;28;20032;-82
2023/10/05 01:35:29;;;;;;;36.33;14.05;;;;;;;12.49;70.70;100812.56;5062161;28;20033;-84
2023/10/05 01:37:55;;;;;;;48.88;18.25;;;;;;;12.46;70.44;100805.78;5050566;28;20033;-84
2023/10/05 01:42:51;;;;;;;39.75;15.30;;;;;;;12.42;71.10;100804.56;5051331;28;20060;-84
2023/10/05 01:45:50;;;;;;;32.20;12.73;;;;;;;12.58;70.17;100795.22;5049220;28;20031;-82
2023/10/05 01:48:14;;;;;;;25.75;10.50;;;;;;;12.80;69.56;100806.44;5068749;28;20048;-82
2023/10/05 01:50:39;;;;;;;21.45;9.73;;;;;;;13.07;68.45;100801.72;5070581;28;20025;-83
2023/10/05 01:53:18;;;;;;;20.73;10.50;;;;;;;13.10;68.17;100797.78;5051448;28;20124;-84
2023/10/05 01:55:47;;;;;;;;;;;;;;;13.18;67.94;100818.97;5051034;28;20039;-82
2023/10/05 01:58:22;;;;;;;19.85;8.95;;;;;;;12.88;68.97;100813.38;5068273;28;19924;-83
2023/10/05 02:00:48;;;;;;;17.58;9.32;;;;;;;12.71;68.99;100794.31;5053631;28;20029;-82
2023/10/05 02:03:13;;;;;;;18.58;8.93;;;;;;;12.66;70.03;100808.34;5051954;28;20025;-83
2023/10/05 02:05:39;;;;;;;17.35;8.63;;;;;;;12.88;67.80;100819.56;5065598;28;20413;-83
2023/10/05 02:08:05;;;;;;;19.73;9.63;;;;;;;12.94;66.62;100807.19;5053107;28;20057;-82
2023/10/05 02:10:40;;;;;;;19.38;8.57;;;;;;;12.56;68.47;100813.34;5056195;28;20035;-82
2023/10/05 02:13:12;;;;;;;21.08;9.77;;;;;;;12.29;70.32;100818.00;5056695;28;20094;-82
2023/10/05 02:15:40;;;;;;;25.65;10.25;;;;;;;12.22;69.33;100815.38;5053183;28;20029;-82
2023/10/05 02:18:39;;;;;;;20.88;10.00;;;;;;;11.48;73.06;100801.28;5052792;28;20060;-82
2023/10/05 02:21:07;;;;;;;18.25;9.32;;;;;;;12.38;68.94;100808.69;5070489;28;20386;-83
2023/10/05 02:23:41;;;;;;;18.35;9.45;;;;;;;12.25;69.25;100829.09;5061077;28;20272;-83
2023/10/05 02:26:24;;;;;;;22.05;9.43;;;;;;;11.57;72.08;100820.59;5062571;28;20506;-83
2023/10/05 02:28:51;;;;;;;18.83;9.70;;;;;;;11.56;71.34;100821.63;5075888;28;20484;-83
2023/10/05 02:31:17;;;;;;;21.48;9.55;;;;;;;12.09;67.17;100810.84;5064190;28;20128;-83
2023/10/05 02:33:43;;;;;;;35.55;14.40;;;;;;;12.18;68.08;100822.16;5057831;28;20048;-83
2023/10/05 02:36:11;;;;;;;27.02;11.15;;;;;;;11.98;68.68;100820.34;5064702;28;20408;-84
2023/10/05 02:38:38;;;;;;;30.48;12.00;;;;;;;11.86;68.59;100797.94;5068262;28;20082;-84
2023/10/05 02:41:08;;;;;;;31.05;12.55;;;;;;;11.43;70.75;100812.59;5076083;28;20044;-83
2023/10/05 02:43:39;;;;;;;43.58;16.95;;;;;;;11.68;70.24;100830.66;5073349;28;20035;-84
2023/10/05 02:46:10;;;;;;;39.22;14.23;;;;;;;11.47;71.86;100861.06;5069857;28;20037;-83
2023/10/05 02:48:38;;;;;;;36.60;13.52;;;;;;;10.91;75.04;100866.72;5068603;28;20068;-83
2023/10/05 02:51:10;;;;;;;32.63;12.25;;;;;;;10.64;75.50;100845.31;5062940;28;20036;-83
2023/10/05 02:53:40;;;;;;;31.10;11.23;;;;;;;10.75;75.91;100850.09;5070768;28;20049;-83
2023/10/05 02:56:15;;;;;;;32.67;11.30;;;;;;;11.50;71.47;100838.47;5061275;28;20032;-84
2023/10/05 02:58:43;;;;;;;25.00;11.20;;;;;;;11.44;71.24;100829.44;5055389;28;20168;-83
2023/10/05 03:01:12;;;;;;;25.42;11.70;;;;;;;11.91;69.25;100834.75;5053553;28;20040;-83
2023/10/05 03:03:38;;;;;;;23.67;10.20;;;;;;;11.32;71.35;100831.06;5062851;28;20097;-84
2023/10/05 03:06:10;;;;;;;22.52;10.75;;;;;;;10.81;73.95;100825.28;5060878;28;20111;-83
2023/10/05 03:08:36;;;;;;;24.83;10.30;;;;;;;11.51;70.60;100830.25;5061186;28;20029;-82
2023/10/05 03:11:03;;;;;;;23.67;11.45;;;;;;;10.49;73.46;100796.66;5060267;28;20511;-84
2023/10/05 03:13:29;;;;;;;20.02;9.75;;;;;;;10.60;74.58;100836.06;5062899;28;20067;-83
2023/10/05 03:15:55;;;;;;;23.08;9.80;;;;;;;11.12;72.25;100837.22;5055853;28;20568;-83
2023/10/05 03:18:20;;;;;;;15.85;8.43;;;;;;;11.39;71.07;100853.28;5069908;28;20047;-83
2023/10/05 03:20:46;;;;;;;20.65;9.15;;;;;;;11.66;70.05;100822.84;5070686;28;20020;-83
2023/10/05 03:23:14;;;;;;;21.13;9.57;;;;;;;11.51;70.75;100822.25;5050978;28;20452;-83
2023/10/05 03:25:41;;;;;;;17.40;8.63;;;;;;;11.16;72.74;100853.66;5051802;28;20035;-82
2023/10/05 03:28:06;;;;;;;18.42;9.27;;;;;;;10.87;73.35;100855.66;5056686;28;20115;-84
2023/10/05 03:30:35;;;;;;;22.27;9.32;;;;;;;11.51;71.02;100840.13;5072044;28;20119;-82
2023/10/05 03:33:02;;;;;;;20.90;9.13;;;;;;;11.71;69.52;100832.06;5068908;28;20854;-84
2023/10/05 03:35:32;;;;;;;19.42;8.75;;;;;;;11.71;68.60;100829.41;5067332;28;20065;-82
2023/10/05 03:37:57;;;;;;;15.77;8.00;;;;;;;11.80;68.97;100846.88;5051787;28;20116;-82
2023/10/05 03:40:25;;;;;;;18.52;9.13;;;;;;;10.90;71.95;100830.41;5050513;28;20160;-83
2023/10/05 03:42:58;;;;;;;;;;;;;;;10.64;73.18;100850.66;5071194;28;20137;-83
2023/10/05 03:45:23;;;;;;;33.03;12.45;;;;;;;10.93;71.17;100828.19;5054513;28;19927;-83
2023/10/05 03:47:49;;;;;;;48.75;16.75;;;;;;;11.33;70.50;100856.75;5061369;28;20037;-82
2023/10/05 03:50:17;;;;;;;34.97;14.32;;;;;;;11.62;69.47;100852.84;5071349;28;20032;-83
2023/10/05 03:52:47;;;;;;;29.77;12.68;;;;;;;11.68;69.58;100853.88;5067353;28;20017;-83
2023/10/05 03:55:18;;;;;;;36.55;16.05;;;;;;;10.97;73.10;100855.25;5068294;28;20575;-83
2023/10/05 03:57:44;;;;;;;46.53;16.05;;;;;;;10.73;73.25;100830.78;5059053;28;20032;-83
2023/10/05 04:00:23;;;;;;;39.53;16.02;;;;;;;11.24;72.67;100856.97;5051363;28;20029;-82
2023/10/05 04:02:53;;;;;;;31.60;12.75;;;;;;;11.44;71.62;100843.63;5062175;28;20024;-83
2023/10/05 04:05:22;;;;;;;30.25;12.52;;;;;;;11.24;71.19;100830.25;5051151;28;20078;-82
2023/10/05 04:07:48;;;;;;;30.50;11.90;;;;;;;11.26;73.26;100860.25;5060670;28;20029;-83
2023/10/05 04:10:20;;;;;;;24.83;11.07;;;;;;;11.40;72.41;100849.56;5049530;28;20042;-82
2023/10/05 04:12:46;;;;;;;20.65;10.23;;;;;;;11.77;71.67;100855.28;5079864;28;20043;-83
2023/10/05 04:15:12;;;;;;;20.75;10.15;;;;;;;11.62;70.47;100829.63;5061493;28;20127;-82
2023/10/05 04:17:38;;;;;;;21.08;9.15;;;;;;;11.24;72.25;100840.94;5054067;28;20048;-83
2023/10/05 04:20:17;;;;;;;21.63;9.27;;;;;;;10.59;75.32;100847.78;5049058;28;20088;-84
2023/10/05 04:22:42;;;;;;;17.92;8.07;;;;;;;10.15;77.33;100839.13;5061837;28;20044;-83
2023/10/05 04:25:09;;;;;;;19.77;9.45;;;;;;;11.02;74.28;100858.97;5066802;28;20025;-82
2023/10/05 04:27:34;;;;;;;18.50;8.70;;;;;;;11.09;73.57;100844.81;5053438;28;20029;-83
2023/10/05 04:30:00;;;;;;;34.40;12.77;;;;;;;11.31;72.41;100851.63;5055489;28;20493;-83
2023/10/05 04:32:26;;;;;;;34.13;14.75;;;;;;;11.55;71.09;100873.41;5055087;28;20511;-82
2023/10/05 04:34:52;;;;;;;30.05;11.88;;;;;;;10.73;74.10;100848.66;5066199;28;20021;-83
2023/10/05 04:37:17;;;;;;;27.83;11.35;;;;;;;11.31;72.45;100861.47;5064049;28;20036;-83
2023/10/05 04:39:43;;;;;;;23.17;10.45;;;;;;;11.16;72.88;100870.50;5059856;28;20020;-82
2023/10/05 04:42:11;;;;;;;20.83;9.50;;;;;;;11.36;72.07;100870.53;5065451;28;20025;-83
2023/10/05 04:44:41;;;;;;;21.48;10.10;;;;;;;11.51;71.71;100851.63;5061052;28;20024;-83
2023/10/05 04:47:09;;;;;;;21.10;10.38;;;;;;;11.89;70.28;100858.19;5052810;28;20132;-83
2023/10/05 04:49:37;;;;;;;24.05;9.73;;;;;;;12.10;68.70;100881.22;5049730;28;20032;-82
2023/10/05 04:52:06;;;;;;;25.60;9.50;;;;;;;11.66;71.80;100881.63;5052475;28;20101;-82
2023/10/05 04:54:35;;;;;;;25.00;9.75;;;;;;;11.78;70.80;100873.81;5035051;28;20032;-83
2023/10/05 04:57:07;;;;;;;24.85;9.52;;;;;;;11.36;72.58;100861.69;5059419;28;20031;-83
2023/10/05 05:02:12;;;;;;;23.08;9.90;;;;;;;11.90;71.06;100870.56;5069465;28;20028;-83
2023/10/05 05:04:51;;;;;;;21.23;10.05;;;;;;;11.76;71.77;100891.09;5034107;28;20048;-83
2023/10/05 05:07:19;;;;;;;19.25;9.73;;;;;;;11.51;73.15;100883.69;5064950;28;20127;-83
2023/10/05 05:09:45;;;;;;;26.17;10.53;;;;;;;12.09;71.69;100898.28;5062234;28;20120;-82
2023/10/05 05:12:20;;;;;;;23.38;10.30;;;;;;;12.60;69.88;100894.84;5049056;28;21341;-83
2023/10/05 05:14:46;;;;;;;20.85;9.73;;;;;;;12.51;70.52;100899.63;5049959;28;20035;-83
2023/10/05 05:17:18;;;;;;;19.38;10.38;;;;;;;12.68;69.74;100875.88;5051506;28;20052;-82
2023/10/05 05:19:45;;;;;;;22.10;11.65;;;;;;;12.83;69.46;100907.69;5048744;28;20128;-83
2023/10/05 05:22:11;;;;;;;23.17;11.98;;;;;;;13.04;69.23;100890.53;5047598;28;20025;-83
2023/10/05 05:24:37;;;;;;;25.83;12.63;;;;;;;13.35;68.44;100888.91;5063439;28;20094;-82
2023/10/05 05:27:04;;;;;;;25.83;12.75;;;;;;;13.61;67.58;100891.41;5051315;28;20028;-83
2023/10/05 05:29:33;;;;;;;25.65;12.43;;;;;;;13.64;67.57;100882.09;5048804;28;20087;-83
2023/10/05 05:32:06;;;;;;;24.33;12.40;;;;;;;13.81;65.99;100879.66;5069413;28;20035;-83
2023/10/05 05:34:31;;;;;;;23.23;11.02;;;;;;;13.87;66.07;100902.91;5050354;28;20036;-83
2023/10/05 05:36:57;;;;;;;23.80;10.93;;;;;;;13.96;65.84;100896.25;5054061;28;20037;-83
2023/10/05 05:39:25;;;;;;;22.30;10.95;;;;;;;14.10;65.35;100890.72;5047620;28;20132;-83
2023/10/05 05:41:59;;;;;;;20.55;10.02;;;;;;;14.12;66.28;100905.59;5067242;28;20035;-82
2023/10/05 05:44:28;;;;;;;20.45;9.73;;;;;;;14.09;67.00;100884.56;5054828;28;20094;-83
2023/10/05 05:46:59;;;;;;;18.60;9.90;;;;;;;14.23;66.45;100880.69;5066934;28;20025;-83
2023/10/05 05:49:27;;;;;;;20.65;9.82;;;;;;;14.44;65.13;100887.50;5053679;28;20025;-83
2023/10/05 05:51:52;;;;;;;18.77;10.00;;;;;;;14.72;65.13;100910.31;5051538;28;20042;-83
2023/10/05 05:54:18;;;;;;;21.55;9.73;;;;;;;14.95;64.02;100919.53;5051482;28;20033;-84
2023/10/05 05:56:44;;;;;;;20.92;10.43;;;;;;;15.06;62.35;100900.78;5050786;28;20064;-84
2023/10/05 05:59:10;;;;;;;19.42;9.27;;;;;;;15.22;61.59;100893.94;5059519;28;20497;-84
2023/10/05 06:01:35;;;;;;;28.08;11.27;;;;;;;15.44;61.88;100926.47;5056559;28;20037;-84
2023/10/05 06:04:01;;;;;;;23.08;12.13;;;;;;;15.50;62.19;100905.91;5063962;28;20103;-83
2023/10/05 06:06:27;;;;;;;20.75;10.88;;;;;;;15.34;62.29;100917.31;5061080;28;20049;-83
2023/10/05 06:08:52;;;;;;;22.45;11.00;;;;;;;15.66;62.40;100926.75;5051927;28;20068;-82
2023/10/05 06:11:19;;;;;;;22.17;11.35;;;;;;;15.84;60.84;100906.22;5060345;28;20090;-83
2023/10/05 06:13:45;;;;;;;27.13;11.88;;;;;;;15.78;61.54;100924.09;5055528;28;20025;-83
2023/10/05 06:16:13;;;;;;;23.20;10.95;;;;;;;16.27;60.43;100931.97;5050313;28;20514;-84
2023/10/05 06:18:38;;;;;;;25.87;12.23;;;;;;;16.13;61.35;100919.81;5054933;28;20032;-83
2023/10/05 06:21:04;;;;;;;21.08;11.25;;;;;;;16.53;60.50;100930.63;5058246;28;20397;-84
2023/10/05 06:23:33;;;;;;;23.45;11.40;;;;;;;16.54;58.60;100931.44;5064967;28;20026;-82
2023/10/05 06:25:59;;;;;;;19.25;9.98;;;;;;;16.82;60.14;100939.59;5053509;28;20056;-83
2023/10/05 06:28:27;;;;;;;22.88;12.35;;;;;;;17.03;57.56;100945.41;5054349;28;20083;-84
2023/10/05 06:30:53;;;;;;;28.52;11.05;;;;;;;16.94;58.77;100938.72;5050188;28;20032;-84
2023/10/05 06:33:22;;;;;;;25.35;12.60;;;;;;;17.14;58.78;100936.47;5051952;28;20478;-84
2023/10/05 06:35:47;;;;;;;23.23;10.98;;;;;;;17.27;57.32;100936.16;5052433;28;20478;-84
2023/10/05 06:38:14;;;;;;;24.92;10.73;;;;;;;17.44;55.71;100946.13;5055247;28;20058;-85
2023/10/05 06:40:39;;;;;;;24.02;11.30;;;;;;;17.51;55.25;100941.44;5051821;28;20024;-84
2023/10/05 06:43:05;;;;;;;29.50;14.10;;;;;;;17.47;55.99;100951.88;5050699;28;20403;-84
2023/10/05 06:45:31;;;;;;;29.60;11.70;;;;;;;17.38;56.39;100944.41;5050257;28;20037;-82
2023/10/05 06:47:57;;;;;;;23.10;12.13;;;;;;;17.70;56.04;100960.88;5051100;28;20049;-83
2023/10/05 06:50:22;;;;;;;22.10;11.07;;;;;;;17.83;55.49;100965.97;5053054;28;20040;-84
2023/10/05 06:52:48;;;;;;;22.48;11.88;;;;;;;17.86;54.80;100962.00;5047066;28;20063;-82
2023/10/05 06:55:18;;;;;;;18.92;10.27;;;;;;;17.95;55.82;100941.63;5049426;28;20052;-84
2023/10/05 06:57:44;;;;;;;21.35;10.57;;;;;;;18.13;54.14;100945.94;5045049;28;20670;-84
2023/10/05 07:00:12;;;;;;;21.10;9.70;;;;;;;18.33;54.16;100969.72;5051990;28;20032;-83
2023/10/05 07:02:41;;;;;;;18.63;9.80;;;;;;;18.28;53.30;100939.94;5049990;28;20052;-85
2023/10/05 07:05:07;;;;;;;15.80;8.48;;;;;;;18.42;53.41;100951.19;5053995;28;20267;-84
2023/10/05 07:07:36;;;;;;;17.50;8.57;;;;;;;18.66;52.64;100968.00;5051471;28;20110;-85
2023/10/05 07:10:03;;;;;;;21.23;8.45;;;;;;;19.12;52.35;100984.78;5051903;28;20482;-86
2023/10/05 07:12:38;;;;;;;18.37;9.33;;;;;;;19.20;51.60;100983.53;5050578;28;20029;-85
2023/10/05 07:15:05;;;;;;;19.05;9.40;;;;;;;19.52;50.72;100991.69;5049861;28;20040;-83
2023/10/05 07:17:31;;;;;;;17.05;8.30;;;;;;;19.57;50.75;100986.31;5050467;28;20264;-84
2023/10/05 07:19:58;;;;;;;13.57;7.88;;;;;;;19.54;48.80;100959.78;5053561;28;20064;-85
2023/10/05 07:22:24;;;;;;;14.82;7.85;;;;;;;19.78;49.44;100973.03;5048136;28;20048;-83
2023/10/05 07:24:49;;;;;;;14.20;7.88;;;;;;;20.02;47.71;100984.28;5050480;28;20131;-85
2023/10/05 07:27:16;;;;;;;17.13;8.18;;;;;;;20.00;47.83;100976.44;5049811;28;20493;-82
2023/10/05 07:29:45;;;;;;;16.67;8.95;;;;;;;19.80;48.15;100951.94;5053683;28;20502;-84
2023/10/05 07:32:14;;;;;;;16.77;9.43;;;;;;;19.94;47.24;100982.91;5048677;28;20040;-84
2023/10/05 07:34:43;;;;;;;17.65;7.88;;;;;;;19.89;48.44;100985.56;5047908;28;20032;-84
2023/10/05 07:37:12;;;;;;;17.08;8.52;;;;;;;19.79;48.46;100963.81;5047077;28;20036;-82
2023/10/05 07:39:41;;;;;;;17.05;8.77;;;;;;;20.12;47.83;100978.16;5049559;28;20040;-83
2023/10/05 07:42:10;;;;;;;19.15;10.00;;;;;;;20.44;47.37;100976.19;5050172;28;20025;-83
2023/10/05 07:44:39;;;;;;;18.83;9.70;;;;;;;20.32;46.77;100978.28;5050417;28;20060;-85
2023/10/05 07:47:05;;;;;;;16.55;8.68;;;;;;;20.25;47.20;100966.88;5050510;28;20045;-82
2023/10/05 07:49:34;;;;;;;18.52;9.18;;;;;;;20.36;47.10;100987.50;5051193;28;20125;-84
2023/10/05 07:52:05;;;;;;;18.63;8.13;;;;;;;20.36;47.23;100989.41;5053688;28;20020;-84
2023/10/05 07:54:34;;;;;;;15.90;8.05;;;;;;;20.56;46.48;100967.03;5067300;28;20024;-83
2023/10/05 07:57:02;;;;;;;19.05;8.88;;;;;;;20.42;46.48;100956.66;5049895;28;20037;-85
2023/10/05 07:59:31;;;;;;;16.90;8.13;;;;;;;20.94;46.80;100975.88;5040132;28;20029;-83
2023/10/05 08:01:57;;;;;;;22.88;12.43;;;;;;;21.15;44.95;100966.75;5060771;28;20029;-83
2023/10/05 08:04:23;;;;;;;15.95;8.77;;;;;;;21.38;45.05;100975.47;5067021;28;20031;-84
2023/10/05 08:06:52;;;;;;;18.40;9.07;;;;;;;21.31;44.52;100962.19;5050429;28;20128;-83
2023/10/05 08:09:23;;;;;;;18.10;9.27;;;;;;;21.39;44.96;100966.22;5047964;28;20029;-82
2023/10/05 08:11:50;;;;;;;17.27;9.43;;;;;;;21.57;43.41;100970.34;5058090;28;20033;-83
2023/10/05 08:14:17;;;;;;;20.60;9.67;;;;;;;21.60;43.12;100965.22;5068538;28;20039;-82
2023/10/05 08:16:43;;;;;;;19.08;9.75;;;;;;;21.61;44.26;100972.25;5053626;28;20036;-82
2023/10/05 08:19:09;;;;;;;19.08;9.60;;;;;;;21.77;43.47;100953.28;5050293;28;20041;-85
2023/10/05 08:21:34;;;;;;;20.63;10.07;;;;;;;21.90;42.70;100935.59;5055224;28;20031;-81
2023/10/05 08:24:02;;;;;;;22.38;9.57;;;;;;;22.11;41.53;100964.38;5052518;28;20397;-84
2023/10/05 08:26:28;;;;;;;19.98;9.57;;;;;;;22.01;41.21;100951.63;5052177;28;20032;-85
2023/10/05 08:28:55;;;;;;;17.58;8.98;;;;;;;22.06;41.95;100953.50;5052126;28;20505;-85
2023/10/05 08:31:24;;;;;;;21.67;11.00;;;;;;;22.34;41.37;100956.75;5052059;28;20036;-84
2023/10/05 08:33:54;;;;;;;19.30;9.25;;;;;;;22.57;42.07;100960.75;5062845;28;20274;-83
2023/10/05 08:36:22;;;;;;;20.73;8.95;;;;;;;22.71;40.22;100940.03;5057044;28;21012;-84
2023/10/05 08:38:48;;;;;;;18.75;9.38;;;;;;;22.80;41.52;100965.56;5050269;28;20028;-83
2023/10/05 08:41:41;;;;;;;23.58;10.05;;;;;;;22.90;41.71;100953.00;5051834;28;20041;-84
2023/10/05 08:44:17;;;;;;;23.85;9.18;;;;;;;23.35;40.50;100953.84;5047004;28;20030;-84
2023/10/05 08:46:43;;;;;;;28.83;16.40;;;;;;;23.51;39.89;100952.63;5057300;28;20089;-84
2023/10/05 08:49:12;;;;;;;20.75;9.52;;;;;;;23.72;38.47;100947.03;5035409;28;20045;-84
2023/10/05 08:51:39;;;;;;;19.55;9.15;;;;;;;23.69;39.44;100961.22;5035412;28;20072;-83
2023/10/05 08:54:09;;;;;;;18.10;8.15;;;;;;;23.89;39.25;100961.06;5033970;28;20044;-84
2023/10/05 08:56:45;;;;;;;17.83;8.10;;;;;;;23.97;38.63;100960.44;5038648;28;20033;-84
2023/10/05 08:59:14;;;;;;;20.60;9.43;;;;;;;24.07;38.71;100956.81;5037226;28;20033;-84
2023/10/05 09:01:45;;;;;;;23.23;11.45;;;;;;;24.10;37.52;100958.16;5040725;28;20037;-83
2023/10/05 09:06:55;;;;;;;20.67;8.50;;;;;;;24.25;39.02;100944.34;5032555;28;20034;-83
2023/10/05 09:09:54;;;;;;;26.13;13.05;;;;;;;24.60;37.12;100951.34;5040331;28;20044;-84
2023/10/05 09:12:42;;;;;;;17.20;7.95;;;;;;;24.56;36.87;100933.13;5030164;28;20469;-84
2023/10/05 09:15:19;;;;;;;16.50;8.32;;;;;;;24.79;36.89;100943.19;5027507;28;20459;-85
2023/10/05 09:20:39;;;;;;;15.70;8.25;;;;;;;24.92;36.64;100949.84;5032195;28;20132;-85
2023/10/05 09:23:07;;;;;;;17.58;7.78;;;;;;;24.92;36.95;100940.84;5027631;28;20105;-85
2023/10/05 09:25:34;;;;;;;15.82;8.23;;;;;;;24.99;36.52;100941.31;5028208;28;20088;-85
2023/10/05 09:28:12;;;;;;;17.58;8.25;;;;;;;25.18;36.18;100950.28;5043771;28;20033;-85
2023/10/05 09:30:49;;;;;;;15.40;7.22;;;;;;;25.35;36.37;100944.34;5044143;28;20053;-86
2023/10/05 09:33:18;;;;;;;16.83;7.95;;;;;;;25.16;35.39;100925.22;5029941;28;20022;-85
2023/10/05 09:35:46;;;;;;;16.10;7.90;;;;;;;25.04;36.74;100917.47;5027942;28;20037;-83
2023/10/05 09:38:14;;;;;;;16.33;7.35;;;;;;;25.57;35.74;100940.97;5042234;28;20025;-83
2023/10/05 09:40:40;;;;;;;;;;;;;;;25.36;35.54;100937.78;5029658;28;20064;-84
2023/10/05 09:43:10;;;;;;;16.20;7.55;;;;;;;25.70;34.92;100925.72;5047589;28;20472;-84
2023/10/05 09:45:43;;;;;;;14.98;7.47;;;;;;;26.19;34.43;100918.03;5027884;28;20044;-84
2023/10/05 09:48:08;;;;;;;17.10;8.15;;;;;;;26.05;34.19;100918.03;5053437;28;20049;-84
2023/10/05 09:50:35;;;;;;;15.90;7.18;;;;;;;26.30;35.56;100916.75;5064571;28;20033;-84
2023/10/05 09:53:06;;;;;;;14.57;7.15;;;;;;;26.31;33.63;100915.63;5057315;28;20032;-85
2023/10/05 09:55:33;;;;;;;14.82;7.82;;;;;;;25.98;33.52;100896.56;5050943;28;20045;-85
2023/10/05 09:58:05;;;;;;;17.25;7.50;;;;;;;26.03;33.40;100910.16;5048766;28;20114;-85
2023/10/05 10:03:05;;;;;;;15.85;7.22;;;;;;;26.12;34.32;100890.31;5054798;28;20036;-83
2023/10/05 10:05:42;;;;;;;17.83;7.50;;;;;;;26.80;33.49;100903.13;5050983;28;20114;-85
2023/10/05 10:08:42;;;;;;;20.53;8.00;;;;;;;26.55;33.03;100898.19;5047588;28;20029;-84
2023/10/05 10:11:24;;;;;;;19.02;7.00;;;;;;;26.80;33.51;100889.44;5060434;28;20337;-84
2023/10/05 10:14:09;;;;;;;19.77;6.88;;;;;;;27.43;31.73;100893.19;5047913;28;20057;-84
2023/10/05 10:16:41;;;;;;;13.38;5.90;;;;;;;27.34;31.63;100897.81;5048127;28;20452;-84
2023/10/05 10:19:19;;;;;;;14.73;6.82;;;;;;;27.47;32.00;100874.19;5065695;28;20089;-84
2023/10/05 10:21:47;;;;;;;12.70;6.10;;;;;;;26.75;32.43;100870.41;5036632;28;20024;-85
2023/10/05 10:24:19;;;;;;;14.60;6.90;;;;;;;27.39;32.69;100880.44;5054359;28;20053;-84
2023/10/05 10:26:56;;;;;;;15.77;6.60;;;;;;;26.91;32.53;100883.72;5047887;28;20064;-81
2023/10/05 10:29:42;;;;;;;13.60;6.67;;;;;;;26.69;32.06;100862.63;5047451;28;20405;-85
2023/10/05 10:32:22;;;;;;;14.93;5.65;;;;;;;26.92;32.25;100858.00;5047220;28;20263;-83
2023/10/05 10:34:55;;;;;;;13.65;5.82;;;;;;;27.16;31.62;100855.75;5059163;28;20494;-84
2023/10/05 10:37:44;;;;;;;13.13;5.95;;;;;;;27.39;31.83;100856.56;5056452;28;20110;-83
2023/10/05 10:43:07;;;;;;;13.02;6.70;;;;;;;28.13;30.80;100844.19;5055608;28;20025;-84
2023/10/05 10:45:44;;;;;;;15.55;5.85;;;;;;;27.59;31.14;100832.53;5041934;28;20051;-83
2023/10/05 10:50:42;;;;;;;11.98;5.22;;;;;;;27.64;30.71;100840.59;5051716;28;20070;-84
2023/10/05 10:53:18;;;;;;;15.30;6.32;;;;;;;26.92;31.83;100845.09;5051683;28;20029;-83
2023/10/05 10:55:48;;;;;;;14.48;6.05;;;;;;;27.65;31.64;100815.63;5050965;28;20056;-84
2023/10/05 10:58:23;;;;;;;16.60;6.65;;;;;;;28.41;30.71;100820.06;5050304;28;20037;-84
2023/10/05 11:01:03;;;;;;;12.25;6.28;;;;;;;28.01;30.49;100828.38;5050875;28;20073;-86
2023/10/05 11:03:36;;;;;;;13.48;5.70;;;;;;;27.90;30.98;100804.31;5051852;28;20028;-84
2023/10/05 11:06:04;;;;;;;12.32;5.97;;;;;;;28.41;30.34;100813.75;5049915;28;20398;-86
2023/10/05 11:08:40;;;;;;;17.92;7.30;;;;;;;28.71;29.48;100801.06;5050308;28;20036;-84
2023/10/05 11:11:09;;;;;;;23.00;12.77;;;;;;;28.97;29.42;100802.97;5052179;28;20025;-83
2023/10/05 11:13:48;;;;;;;13.88;7.07;;;;;;;28.29;29.56;100806.16;5062653;28;20051;-84
2023/10/05 11:16:15;;;;;;;14.82;6.90;;;;;;;28.18;29.85;100780.97;5051892;28;20581;-82
2023/10/05 11:18:57;;;;;;;17.53;9.80;;;;;;;28.36;29.47;100801.03;5050789;28;20509;-82
2023/10/05 11:21:26;;;;;;;19.77;13.00;;;;;;;29.17;29.35;100776.78;5051839;28;20045;-82
2023/10/05 11:23:56;;;;;;;11.55;6.22;;;;;;;29.90;27.59;100784.91;5053934;28;20450;-82
2023/10/05 11:26:57;;;;;;;15.05;6.57;;;;;;;29.78;27.47;100784.81;5050693;28;20041;-83
2023/10/05 11:29:40;;;;;;;15.15;5.63;;;;;;;29.06;28.77;100768.06;5060495;28;20042;-84
2023/10/05 11:32:12;;;;;;;13.13;6.13;;;;;;;29.38;28.70;100780.44;5056019;28;20067;-81
2023/10/05 11:34:42;;;;;;;10.35;5.25;;;;;;;29.16;28.24;100767.75;5057574;28;20020;-86
2023/10/05 11:37:18;;;;;;;14.35;5.28;;;;;;;29.98;27.18;100750.25;5069459;28;20131;-84
2023/10/05 11:39:59;;;;;;;15.45;5.57;;;;;;;29.76;27.67;100757.66;5054174;28;20028;-83
2023/10/05 11:42:25;;;;;;;13.02;5.80;;;;;;;29.54;27.95;100750.44;5053737;28;20036;-85
2023/10/05 11:44:56;;;;;;;11.40;5.32;;;;;;;28.48;28.87;100755.66;5049727;28;20025;-86
2023/10/05 11:47:46;;;;;;;13.48;5.40;;;;;;;28.54;28.77;100763.44;5047414;28;20063;-85